Time;durP1;ratioP1;P1;durP2;ratioP2;P2;SDS_P1;SDS_P2;PMS_P1;PMS_P2;Temp;Humidity;BMP_temperature;BMP_pressure;BME280_temperature;BME280_humidity;BME280_pressure;Samples;Min_cycle;Max_cycle;Signal;HPM_P1;HPM_P2
2023/02/16 00:01:23;;;;;;;34.90;21.83;;;9.30;99.90;;;;;;5023998;28;20651;-76
2023/02/16 00:03:49;;;;;;;32.93;19.23;;;9.20;99.90;;;;;;5021681;28;20473;-76
2023/02/16 00:06:15;;;;;;;35.40;20.67;;;9.20;99.90;;;;;;5020046;28;20480;-76
2023/02/16 00:08:51;;;;;;;32.33;18.53;;;9.20;99.90;;;;;;5026315;28;20439;-76
2023/02/16 00:14:17;;;;;;;29.47;19.80;;;9.20;99.90;;;;;;5029252;28;20454;-76
2023/02/16 00:16:43;;;;;;;31.10;20.10;;;9.10;99.90;;;;;;5029804;28;20430;-76
2023/02/16 00:19:16;;;;;;;29.47;18.50;;;9.10;99.90;;;;;;5029053;28;20446;-76
2023/02/16 00:21:42;;;;;;;32.23;20.43;;;9.10;99.90;;;;;;5027553;28;20262;-76
2023/02/16 00:24:07;;;;;;;31.33;20.40;;;9.10;99.90;;;;;;5025891;28;20521;-75
2023/02/16 00:26:34;;;;;;;34.60;21.33;;;9.10;99.90;;;;;;5024496;28;20202;-76
2023/02/16 00:29:00;;;;;;;33.70;20.20;;;9.10;99.90;;;;;;5022737;28;20188;-76
2023/02/16 00:31:30;;;;;;;29.07;19.77;;;9.20;99.90;;;;;;5022206;28;20471;-80
2023/02/16 00:33:57;;;;;;;34.47;22.37;;;9.10;99.90;;;;;;5024173;28;20948;-75
2023/02/16 00:36:23;;;;;;;30.07;19.83;;;9.20;99.90;;;;;;5029807;28;20553;-74
2023/02/16 00:38:49;;;;;;;33.57;20.57;;;9.20;99.90;;;;;;5030625;28;20478;-76
2023/02/16 00:44:03;;;;;;;29.37;18.20;;;9.20;99.90;;;;;;5032873;28;20593;-76
2023/02/16 00:46:28;;;;;;;33.53;19.67;;;9.10;99.90;;;;;;5030536;28;20849;-77
2023/02/16 00:48:54;;;;;;;35.70;20.57;;;9.00;99.90;;;;;;5025943;28;20478;-76
2023/02/16 00:51:19;;;;;;;37.60;21.43;;;9.00;99.90;;;;;;5026992;28;20180;-76
2023/02/16 00:53:45;;;;;;;35.67;21.07;;;9.00;99.90;;;;;;5025494;28;20187;-77
2023/02/16 00:56:15;;;;;;;35.00;19.77;;;9.00;99.90;;;;;;5024693;28;20188;-79
2023/02/16 00:58:40;;;;;;;32.30;20.43;;;9.00;99.90;;;;;;5027016;28;20266;-77
2023/02/16 01:01:11;;;;;;;29.57;20.20;;;9.00;99.90;;;;;;5029288;28;20525;-77
2023/02/16 01:03:37;;;;;;;30.50;20.33;;;9.00;99.90;;;;;;5018149;28;20220;-77
2023/02/16 01:11:31;;;;;;;35.87;19.77;;;8.90;99.90;;;;;;5016070;28;20436;-78
2023/02/16 01:13:56;;;;;;;38.03;21.17;;;8.80;99.90;;;;;;5022193;28;20450;-78
2023/02/16 01:16:44;;;;;;;29.97;18.73;;;8.80;99.90;;;;;;5028409;28;20553;-78
2023/02/16 01:19:11;;;;;;;29.70;19.37;;;8.70;99.90;;;;;;5020777;28;20218;-78
2023/02/16 01:21:38;;;;;;;33.63;21.87;;;8.70;99.90;;;;;;5025023;28;20459;-78
2023/02/16 01:24:03;;;;;;;37.70;21.90;;;8.70;99.90;;;;;;5022715;28;20458;-78
2023/02/16 01:26:30;;;;;;;34.47;21.00;;;8.70;99.90;;;;;;5021228;28;20800;-78
2023/02/16 01:28:56;;;;;;;35.70;21.80;;;8.60;99.90;;;;;;5020117;28;20183;-78
2023/02/16 01:31:21;;;;;;;33.40;21.20;;;8.50;99.90;;;;;;5026332;28;20478;-79
2023/02/16 01:33:47;;;;;;;32.03;21.50;;;8.50;99.90;;;;;;5017912;28;20235;-79
2023/02/16 01:36:22;;;;;;;34.47;21.43;;;8.50;99.90;;;;;;5015077;28;20180;-77
2023/02/16 01:38:48;;;;;;;33.53;21.37;;;8.50;99.90;;;;;;5032067;28;20222;-83
2023/02/16 01:41:28;;;;;;;30.40;22.20;;;8.40;99.90;;;;;;5026659;28;20443;-78
2023/02/16 01:44:14;;;;;;;31.63;20.40;;;8.40;99.90;;;;;;5025799;28;20228;-76
2023/02/16 01:47:18;;;;;;;32.00;21.47;;;8.30;99.90;;;;;;5021191;28;20462;-84
2023/02/16 01:49:43;;;;;;;31.40;19.57;;;8.40;99.90;;;;;;5023613;28;20483;-81
2023/02/16 01:52:44;;;;;;;33.27;19.63;;;8.30;99.90;;;;;;5025542;28;20430;-78
2023/02/16 01:55:20;;;;;;;31.17;19.03;;;8.30;99.90;;;;;;5013750;28;20192;-78
2023/02/16 01:57:52;;;;;;;25.30;17.67;;;8.20;99.90;;;;;;5028479;28;20434;-78
2023/02/16 02:01:03;;;;;;;30.93;19.60;;;8.20;99.90;;;;;;5019948;28;20933;-79
2023/02/16 02:06:31;;;;;;;34.53;21.50;;;8.30;99.90;;;;;;5028716;28;20438;-80
2023/02/16 02:09:10;;;;;;;36.07;19.57;;;8.20;99.90;;;;;;5017437;28;20430;-81
2023/02/16 02:11:45;;;;;;;30.37;20.47;;;8.20;99.90;;;;;;5021644;28;20426;-81
2023/02/16 02:14:16;;;;;;;31.30;19.90;;;8.10;99.90;;;;;;5020468;28;20429;-75
2023/02/16 02:16:55;;;;;;;33.03;20.03;;;8.10;99.90;;;;;;5022119;28;20422;-75
2023/02/16 02:19:21;;;;;;;35.10;21.20;;;8.10;99.90;;;;;;5021477;28;20936;-76
2023/02/16 02:25:10;;;;;;;32.10;20.63;;;8.10;99.90;;;;;;5016495;28;20195;-75
2023/02/16 02:27:43;;;;;;;35.83;20.60;;;8.10;99.90;;;;;;5015398;28;20485;-76
2023/02/16 02:30:30;;;;;;;37.67;22.60;;;8.10;99.90;;;;;;5032157;28;20430;-76
2023/02/16 02:33:11;;;;;;;32.33;20.70;;;8.10;99.90;;;;;;5031528;28;20941;-76
2023/02/16 02:36:03;;;;;;;33.00;20.33;;;8.10;99.90;;;;;;5016327;28;20439;-75
2023/02/16 02:38:33;;;;;;;34.43;21.10;;;8.20;99.90;;;;;;5018028;28;20463;-76
2023/02/16 02:42:03;;;;;;;34.70;19.00;;;8.10;99.90;;;;;;5002557;28;20430;-76
2023/02/16 02:44:29;;;;;;;33.40;19.53;;;8.10;99.90;;;;;;4993059;28;20522;-77
2023/02/16 02:46:55;;;;;;;37.87;19.90;;;8.10;99.90;;;;;;5024718;28;20424;-77
2023/02/16 02:49:21;;;;;;;37.17;20.90;;;8.10;99.90;;;;;;5026570;28;21000;-77
2023/02/16 02:51:49;;;;;;;34.73;20.37;;;8.10;99.90;;;;;;5027920;28;20184;-78
2023/02/16 03:00:48;;;;;;;27.40;17.40;;;8.10;99.90;;;;;;5022219;28;20473;-77
2023/02/16 03:03:37;;;;;;;31.30;19.87;;;8.10;99.90;;;;;;5026504;28;20470;-77
2023/02/16 03:06:14;;;;;;;36.50;20.83;;;8.20;99.90;;;;;;5027459;28;20449;-77
2023/02/16 03:08:43;;;;;;;34.90;21.37;;;8.10;99.90;;;;;;5022992;28;20438;-78
2023/02/16 03:14:35;;;;;;;33.63;19.93;;;8.10;99.90;;;;;;5027523;28;20460;-78
2023/02/16 03:30:58;;;;;;;32.47;19.83;;;8.10;99.90;;;;;;5033220;28;20529;-85
2023/02/16 03:33:24;;;;;;;33.37;20.50;;;8.10;99.90;;;;;;5031765;28;20442;-86
2023/02/16 03:35:51;;;;;;;33.93;20.30;;;8.10;99.90;;;;;;5027965;28;20462;-83
2023/02/16 03:38:16;;;;;;;29.57;17.07;;;8.20;99.90;;;;;;5028607;28;20799;-84
2023/02/16 05:31:08;;;;;;;33.40;20.47;;;7.90;99.90;;;;;;5744473;23;20562;-74
2023/02/16 05:33:34;;;;;;;40.70;22.50;;;7.80;99.90;;;;;;5052872;28;20543;-70
2023/02/16 05:36:00;;;;;;;39.03;22.40;;;7.80;99.90;;;;;;5052957;28;20540;-72
2023/02/16 05:38:25;;;;;;;37.00;21.53;;;7.80;99.90;;;;;;5052683;28;20182;-72
2023/02/16 05:40:51;;;;;;;37.10;23.00;;;7.80;99.90;;;;;;5053099;28;20179;-71
2023/02/16 05:43:17;;;;;;;37.87;22.40;;;7.80;99.90;;;;;;5052977;28;20565;-71
2023/02/16 05:45:43;;;;;;;38.87;21.37;;;7.80;99.90;;;;;;5052704;28;20179;-71
2023/02/16 05:48:09;;;;;;;35.50;22.53;;;7.70;99.90;;;;;;5051652;28;20872;-79
2023/02/16 05:50:34;;;;;;;30.60;19.97;;;7.80;99.90;;;;;;5050245;28;20250;-73
2023/02/16 05:53:00;;;;;;;41.07;23.07;;;7.80;99.90;;;;;;5032140;28;20190;-72
2023/02/16 05:55:25;;;;;;;34.43;23.10;;;7.80;99.90;;;;;;5032684;28;20183;-74
2023/02/16 05:57:51;;;;;;;29.53;20.87;;;7.80;99.90;;;;;;5033348;28;20190;-73
2023/02/16 06:00:16;;;;;;;33.60;21.37;;;7.90;99.90;;;;;;5032726;28;20693;-73
2023/02/16 06:02:42;;;;;;;31.97;20.77;;;7.90;99.90;;;;;;5031724;28;20215;-72
2023/02/16 06:05:08;;;;;;;35.10;23.23;;;7.90;99.90;;;;;;5030923;28;20197;-72
2023/02/16 06:07:33;;;;;;;35.30;21.60;;;7.90;99.90;;;;;;5048070;28;20281;-72
2023/02/16 06:09:59;;;;;;;34.00;21.03;;;7.90;99.90;;;;;;5050449;28;21526;-72
2023/02/16 06:12:24;;;;;;;39.30;21.97;;;7.90;99.90;;;;;;5046910;28;20186;-72
2023/02/16 06:14:50;;;;;;;40.00;22.10;;;7.90;99.90;;;;;;5047106;28;20694;-72
2023/02/16 06:17:15;;;;;;;35.77;22.40;;;7.90;99.90;;;;;;5046431;28;20186;-72
2023/02/16 06:19:41;;;;;;;35.60;23.03;;;7.80;99.90;;;;;;5046740;28;20524;-71
2023/02/16 06:22:06;;;;;;;38.13;22.10;;;7.80;99.90;;;;;;5044386;28;20187;-72
2023/02/16 06:24:32;;;;;;;39.07;24.33;;;7.80;99.90;;;;;;5047209;28;20191;-71
2023/02/16 06:26:57;;;;;;;40.97;22.90;;;7.80;99.90;;;;;;5042942;28;20182;-71
2023/02/16 06:29:23;;;;;;;36.07;21.53;;;7.80;99.90;;;;;;5045628;28;20210;-71
2023/02/16 06:31:48;;;;;;;38.87;21.60;;;7.90;99.90;;;;;;5048113;28;20236;-71
2023/02/16 06:34:14;;;;;;;35.07;22.63;;;7.90;99.90;;;;;;5049394;28;20190;-72
2023/02/16 06:36:39;;;;;;;36.30;22.37;;;7.90;99.90;;;;;;5050701;28;20233;-72
2023/02/16 06:39:05;;;;;;;33.17;22.10;;;7.90;99.90;;;;;;5054759;28;20254;-72
2023/02/16 06:41:30;;;;;;;34.43;22.23;;;7.90;99.90;;;;;;5049506;28;20189;-72
2023/02/16 06:44:01;;;;;;;36.87;22.80;;;7.90;99.90;;;;;;5051957;28;20211;-72
2023/02/16 06:46:27;;;;;;;33.70;20.40;;;7.90;99.90;;;;;;5052018;28;20734;-72
2023/02/16 06:48:52;;;;;;;36.70;20.63;;;7.90;99.90;;;;;;5050418;28;20528;-72
2023/02/16 06:51:19;;;;;;;31.40;20.73;;;7.90;99.90;;;;;;5051869;28;20500;-72
2023/02/16 06:53:45;;;;;;;36.17;21.97;;;7.90;99.90;;;;;;5050115;28;20210;-72
2023/02/16 06:56:10;;;;;;;40.00;22.90;;;8.10;99.90;;;;;;5050179;28;20426;-72
2023/02/16 06:58:36;;;;;;;40.20;23.20;;;8.10;99.90;;;;;;5049860;28;20445;-72
2023/02/16 07:01:01;;;;;;;37.53;21.50;;;8.20;99.90;;;;;;5053313;28;20589;-72
2023/02/16 07:03:27;;;;;;;31.60;20.23;;;8.20;99.90;;;;;;5053671;28;20238;-72
2023/02/16 07:05:52;;;;;;;36.43;23.37;;;8.30;99.90;;;;;;5053668;28;20534;-72
2023/02/16 07:08:18;;;;;;;32.40;21.73;;;8.40;99.90;;;;;;5050050;28;20195;-72
2023/02/16 07:10:45;;;;;;;32.60;21.93;;;8.40;99.90;;;;;;5050203;28;20186;-73
2023/02/16 07:13:11;;;;;;;34.10;20.40;;;8.50;99.90;;;;;;5051227;28;20612;-72
2023/02/16 07:15:36;;;;;;;38.20;21.17;;;8.50;99.90;;;;;;5049405;28;20433;-72
2023/02/16 07:18:02;;;;;;;32.23;20.90;;;8.60;99.90;;;;;;5030245;28;20175;-72
2023/02/16 07:20:27;;;;;;;36.47;21.30;;;8.60;99.90;;;;;;5049014;28;20187;-73
2023/02/16 07:22:53;;;;;;;30.83;20.47;;;8.60;99.90;;;;;;5049712;28;20551;-71
2023/02/16 07:25:19;;;;;;;31.90;20.17;;;8.70;99.90;;;;;;5048056;28;20646;-71
2023/02/16 07:27:44;;;;;;;31.17;20.57;;;8.60;99.90;;;;;;5049091;28;20195;-72
2023/02/16 07:30:10;;;;;;;32.23;21.50;;;8.60;99.90;;;;;;5051864;28;20183;-71
2023/02/16 07:32:36;;;;;;;33.07;19.97;;;8.60;99.90;;;;;;5053154;28;20578;-71
2023/02/16 07:35:03;;;;;;;38.07;19.60;;;8.70;99.90;;;;;;5050340;28;20438;-72
2023/02/16 07:37:29;;;;;;;33.60;20.40;;;8.80;99.90;;;;;;5050594;28;20449;-73
2023/02/16 07:39:55;;;;;;;34.73;19.23;;;8.80;99.90;;;;;;5048558;28;20528;-72
2023/02/16 07:42:20;;;;;;;32.50;20.70;;;8.80;99.90;;;;;;5050361;28;20588;-74
2023/02/16 07:44:46;;;;;;;32.57;20.30;;;8.80;99.90;;;;;;5049776;28;20533;-74
2023/02/16 07:47:13;;;;;;;33.90;20.17;;;8.90;99.90;;;;;;5048958;28;20179;-73
2023/02/16 07:49:39;;;;;;;34.20;20.77;;;8.90;99.90;;;;;;5049932;28;20552;-72
2023/02/16 07:52:04;;;;;;;31.33;19.30;;;8.90;99.90;;;;;;5049627;28;20524;-74
2023/02/16 07:54:31;;;;;;;34.20;20.67;;;8.90;99.90;;;;;;5052122;28;20308;-73
2023/02/16 07:56:57;;;;;;;35.07;21.40;;;8.90;99.90;;;;;;5051483;28;20183;-72
2023/02/16 07:59:22;;;;;;;36.70;22.37;;;8.90;99.90;;;;;;5051545;28;20436;-72
2023/02/16 08:01:48;;;;;;;32.17;20.67;;;9.00;99.90;;;;;;5051427;28;20183;-72
2023/02/16 08:04:13;;;;;;;33.70;19.83;;;9.00;99.90;;;;;;5051093;28;20572;-72
2023/02/16 08:06:39;;;;;;;34.27;22.20;;;9.00;99.90;;;;;;5051652;28;20175;-72
2023/02/16 08:09:05;;;;;;;35.67;22.10;;;9.00;99.90;;;;;;5045532;28;20265;-72
2023/02/16 08:11:31;;;;;;;31.97;21.37;;;9.00;99.90;;;;;;5048443;28;20537;-72
2023/02/16 08:13:59;;;;;;;32.70;19.00;;;9.00;99.90;;;;;;5047728;28;20773;-72
2023/02/16 08:16:27;;;;;;;33.47;21.20;;;9.10;99.90;;;;;;5048736;28;20438;-72
2023/02/16 08:18:55;;;;;;;34.13;19.47;;;9.10;99.90;;;;;;5049241;28;20568;-72
2023/02/16 08:21:22;;;;;;;36.77;21.90;;;9.10;99.90;;;;;;5050436;28;20502;-72
2023/02/16 08:23:58;;;;;;;31.77;19.10;;;9.10;99.90;;;;;;5047839;28;20807;-72
2023/02/16 08:26:27;;;;;;;33.80;20.17;;;9.20;99.90;;;;;;5048144;28;20985;-72
2023/02/16 08:28:55;;;;;;;29.43;19.80;;;9.30;99.90;;;;;;5051962;28;20444;-72
2023/02/16 08:31:27;;;;;;;30.50;19.47;;;9.40;99.90;;;;;;5050217;28;20465;-72
2023/02/16 08:33:53;;;;;;;32.87;18.80;;;9.50;99.90;;;;;;5046122;28;20442;-72
2023/02/16 08:36:22;;;;;;;28.97;19.87;;;9.50;99.90;;;;;;5044921;28;20430;-72
2023/02/16 08:38:49;;;;;;;30.37;20.07;;;9.60;99.90;;;;;;5046393;28;20425;-72
2023/02/16 08:41:19;;;;;;;33.50;19.30;;;9.50;99.90;;;;;;5045996;28;20426;-72
2023/02/16 08:43:45;;;;;;;28.37;18.30;;;9.60;99.90;;;;;;5048190;28;20572;-72
2023/02/16 08:46:10;;;;;;;30.17;19.90;;;9.60;99.90;;;;;;5048535;28;20466;-72
2023/02/16 08:48:37;;;;;;;24.97;17.97;;;9.70;99.90;;;;;;5049113;28;20464;-71
2023/02/16 08:51:05;;;;;;;30.90;19.80;;;9.70;99.90;;;;;;5049002;28;20561;-74
2023/02/16 08:53:34;;;;;;;32.60;19.20;;;9.70;99.90;;;;;;5049996;28;20429;-72
2023/02/16 08:56:02;;;;;;;31.20;18.80;;;9.70;99.90;;;;;;5050461;28;20426;-73
2023/02/16 08:58:28;;;;;;;29.23;18.17;;;9.70;99.90;;;;;;5048228;28;20532;-73
2023/02/16 09:00:54;;;;;;;32.73;18.87;;;9.80;99.90;;;;;;5048648;28;20422;-71
2023/02/16 09:03:20;;;;;;;28.03;19.67;;;9.80;99.90;;;;;;5046760;28;20494;-73
2023/02/16 09:05:47;;;;;;;27.70;18.13;;;9.90;99.90;;;;;;5046109;28;21069;-73
2023/02/16 09:08:14;;;;;;;33.27;18.27;;;10.00;99.90;;;;;;5042862;28;20190;-72
2023/02/16 09:10:40;;;;;;;28.10;16.97;;;10.10;99.90;;;;;;5050348;28;20432;-73
2023/02/16 09:13:09;;;;;;;24.43;17.77;;;10.10;99.90;;;;;;5049292;28;20432;-73
2023/02/16 09:15:36;;;;;;;30.07;17.97;;;10.10;99.90;;;;;;5050950;28;20430;-73
2023/02/16 09:18:02;;;;;;;28.10;18.33;;;10.30;99.90;;;;;;5049894;28;20870;-72
2023/02/16 09:20:28;;;;;;;24.13;17.40;;;10.30;99.90;;;;;;5051278;28;20871;-72
2023/02/16 09:22:54;;;;;;;25.30;16.00;;;10.30;99.90;;;;;;5050252;28;20473;-75
2023/02/16 09:25:20;;;;;;;28.93;15.77;;;10.40;99.90;;;;;;5050228;28;20233;-74
2023/02/16 09:27:46;;;;;;;30.07;17.90;;;10.50;99.90;;;;;;5051618;28;20175;-74
2023/02/16 09:30:12;;;;;;;26.63;17.50;;;10.50;99.90;;;;;;5048376;28;20452;-74
2023/02/16 09:32:39;;;;;;;25.30;17.33;;;10.60;99.90;;;;;;5051879;28;20230;-72
2023/02/16 09:35:05;;;;;;;28.67;18.80;;;10.50;99.90;;;;;;5053700;28;20432;-72
2023/02/16 09:37:31;;;;;;;29.17;18.30;;;10.50;99.90;;;;;;5051102;28;20991;-72
2023/02/16 09:39:57;;;;;;;24.43;16.70;;;10.60;99.90;;;;;;5054652;28;20453;-72
2023/02/16 09:42:49;;;;;;;27.80;17.40;;;10.70;99.90;;;;;;5045175;28;20493;-72
2023/02/16 09:45:17;;;;;;;25.37;17.80;;;10.70;99.90;;;;;;5046874;28;20207;-72
2023/02/16 09:47:46;;;;;;;27.77;14.67;;;10.90;99.90;;;;;;5050521;28;20437;-72
2023/02/16 09:50:18;;;;;;;27.90;17.37;;;10.90;99.90;;;;;;5045399;28;20445;-72
2023/02/16 09:53:07;;;;;;;26.43;17.80;;;11.00;99.90;;;;;;5045708;28;20520;-72
2023/02/16 09:56:07;;;;;;;29.57;16.40;;;11.10;99.90;;;;;;5052372;28;20437;-71
2023/02/16 09:58:41;;;;;;;24.57;16.43;;;11.30;99.90;;;;;;5049754;28;20430;-71
2023/02/16 10:01:21;;;;;;;27.93;17.93;;;11.20;99.90;;;;;;5048685;28;20429;-71
2023/02/16 10:04:14;;;;;;;24.60;15.73;;;11.20;99.90;;;;;;5049383;28;20485;-71
2023/02/16 10:07:24;;;;;;;26.47;17.20;;;11.20;99.90;;;;;;5047827;28;20452;-71
2023/02/16 10:09:54;;;;;;;24.83;16.60;;;11.30;99.90;;;;;;5014692;28;20441;-72
2023/02/16 10:12:24;;;;;;;24.30;15.87;;;11.30;99.90;;;;;;5054523;28;20444;-71
2023/02/16 10:15:05;;;;;;;24.43;16.57;;;11.30;99.90;;;;;;5057710;28;20425;-72
2023/02/16 10:17:44;;;;;;;25.50;17.17;;;11.30;99.90;;;;;;5055893;28;20433;-72
2023/02/16 10:20:23;;;;;;;22.93;15.90;;;11.30;99.90;;;;;;5062773;28;20460;-72
2023/02/16 10:22:59;;;;;;;27.43;16.87;;;11.40;99.90;;;;;;5051027;28;20468;-72
2023/02/16 10:25:43;;;;;;;24.10;16.03;;;11.40;99.90;;;;;;5051346;28;20413;-72
2023/02/16 10:28:21;;;;;;;24.67;16.63;;;11.50;99.90;;;;;;5057742;28;20516;-72
2023/02/16 10:31:01;;;;;;;25.70;17.20;;;11.60;99.90;;;;;;5056128;28;20452;-72
2023/02/16 10:34:00;;;;;;;24.87;18.03;;;11.50;99.90;;;;;;5050076;28;20447;-72
2023/02/16 10:36:48;;;;;;;23.73;16.23;;;11.40;99.90;;;;;;5049741;28;20433;-71
2023/02/16 10:39:37;;;;;;;25.27;17.30;;;11.40;99.90;;;;;;5053533;28;20433;-72
2023/02/16 10:42:37;;;;;;;27.53;17.70;;;11.30;99.90;;;;;;5053052;28;20507;-71
2023/02/16 10:45:21;;;;;;;26.40;18.97;;;11.10;99.90;;;;;;5047791;28;20437;-71
2023/02/16 10:47:47;;;;;;;29.03;18.70;;;11.10;99.90;;;;;;5049704;28;20426;-72
2023/02/16 10:50:39;;;;;;;32.63;17.90;;;11.10;99.90;;;;;;5052584;28;20452;-72
2023/02/16 10:53:30;;;;;;;22.70;16.00;;;11.10;99.90;;;;;;5052587;28;20574;-72
2023/02/16 10:55:56;;;;;;;29.23;16.83;;;11.00;99.90;;;;;;5050498;28;20749;-69
2023/02/16 10:58:28;;;;;;;29.13;18.40;;;11.00;99.90;;;;;;5049483;28;20820;-71
2023/02/16 11:01:11;;;;;;;26.17;17.23;;;11.10;99.90;;;;;;5051246;28;20526;-72
2023/02/16 11:03:47;;;;;;;23.77;16.77;;;11.10;99.90;;;;;;5044949;28;20477;-72
2023/02/16 11:06:14;;;;;;;31.30;20.00;;;11.20;99.90;;;;;;5053615;28;20425;-71
2023/02/16 11:09:06;;;;;;;26.67;16.60;;;11.20;99.90;;;;;;5053788;28;20513;-72
2023/02/16 11:11:37;;;;;;;31.60;17.20;;;11.30;99.90;;;;;;5035470;28;20761;-73
2023/02/16 11:14:19;;;;;;;30.40;17.67;;;11.30;99.90;;;;;;5053889;28;20429;-72
2023/02/16 11:16:45;;;;;;;26.37;17.87;;;11.30;99.90;;;;;;5048128;28;20928;-73
2023/02/16 11:19:22;;;;;;;28.60;18.07;;;11.30;99.90;;;;;;5051432;28;20483;-73
2023/02/16 11:21:57;;;;;;;29.10;17.80;;;11.20;99.90;;;;;;5049472;28;20646;-74
2023/02/16 11:24:38;;;;;;;27.07;17.33;;;11.40;99.90;;;;;;5049549;28;20942;-73
2023/02/16 11:27:20;;;;;;;25.70;17.53;;;11.60;99.90;;;;;;5050406;28;20421;-73
2023/02/16 11:29:46;;;;;;;29.43;19.43;;;11.60;99.90;;;;;;5051125;28;20441;-72
2023/02/16 11:32:15;;;;;;;32.83;20.90;;;11.70;99.90;;;;;;5042881;28;20475;-72
2023/02/16 11:34:53;;;;;;;28.20;18.93;;;11.80;99.90;;;;;;5040459;28;20442;-72
2023/02/16 11:37:32;;;;;;;24.67;17.43;;;11.80;99.90;;;;;;5038995;28;20434;-72
2023/02/16 11:40:03;;;;;;;30.90;20.83;;;11.80;99.90;;;;;;5039228;28;20790;-72
2023/02/16 11:42:50;;;;;;;28.23;19.40;;;11.90;99.90;;;;;;5042500;28;20465;-71
2023/02/16 11:45:29;;;;;;;28.83;20.07;;;12.00;99.90;;;;;;5042724;28;20452;-74
2023/02/16 11:48:03;;;;;;;31.80;19.30;;;12.20;99.90;;;;;;5038360;28;20434;-74
2023/02/16 11:50:37;;;;;;;30.93;19.87;;;12.20;99.90;;;;;;5033874;28;20434;-73
2023/02/16 11:53:08;;;;;;;27.40;19.70;;;12.20;99.90;;;;;;5011699;28;21047;-72
2023/02/16 11:55:36;;;;;;;25.70;19.60;;;12.30;99.90;;;;;;5036772;28;20425;-71
2023/02/16 11:58:25;;;;;;;37.83;20.90;;;12.40;99.90;;;;;;5035482;28;20936;-71
2023/02/16 12:01:01;;;;;;;28.43;21.30;;;12.40;99.90;;;;;;5031417;28;20423;-71
2023/02/16 12:04:04;;;;;;;28.27;20.23;;;12.40;99.90;;;;;;5039895;28;20992;-71
2023/02/16 12:06:42;;;;;;;27.53;19.73;;;12.30;99.90;;;;;;5038712;28;20543;-71
2023/02/16 12:09:35;;;;;;;29.40;19.90;;;12.30;99.90;;;;;;5035785;28;20529;-71
2023/02/16 12:12:36;;;;;;;29.40;21.00;;;12.30;99.90;;;;;;5032695;28;20441;-71
2023/02/16 12:15:14;;;;;;;27.30;20.40;;;12.20;99.90;;;;;;5031366;28;20484;-71
2023/02/16 12:17:43;;;;;;;29.37;20.77;;;12.20;99.90;;;;;;5030227;28;20425;-71
2023/02/16 12:20:38;;;;;;;30.83;21.53;;;12.10;99.90;;;;;;5035839;28;20449;-71
2023/02/16 12:23:32;;;;;;;26.67;20.47;;;12.20;99.90;;;;;;5036243;28;20874;-71
2023/02/16 12:26:37;;;;;;;27.50;20.85;;;12.00;99.90;;;;;;5024847;28;20800;-69
2023/02/16 12:29:19;;;;;;;31.95;23.63;;;12.10;99.90;;;;;;5030764;28;20457;-69
2023/02/16 12:31:59;;;;;;;30.43;22.63;;;12.30;99.90;;;;;;5035712;28;20223;-69
2023/02/16 12:34:51;;;;;;;34.53;23.23;;;12.30;99.90;;;;;;5031297;28;20457;-69
2023/02/16 12:37:57;;;;;;;30.40;21.50;;;12.30;99.90;;;;;;5029490;28;20467;-69
2023/02/16 12:41:00;;;;;;;33.97;21.57;;;12.20;99.90;;;;;;5026366;28;20438;-69
2023/02/16 12:43:33;;;;;;;29.47;21.03;;;12.10;99.90;;;;;;5023770;28;20561;-69
2023/02/16 12:46:16;;;;;;;32.83;21.77;;;12.20;99.90;;;;;;5030697;28;20429;-72
2023/02/16 12:48:48;;;;;;;30.90;20.20;;;12.30;99.90;;;;;;5022819;28;20946;-72
2023/02/16 12:51:27;;;;;;;31.27;21.87;;;12.20;99.90;;;;;;5026966;28;20446;-72
2023/02/16 12:54:37;;;;;;;29.30;20.90;;;12.20;99.90;;;;;;5031666;28;20446;-72
2023/02/16 12:57:09;;;;;;;34.83;23.23;;;12.20;99.90;;;;;;5029363;28;20426;-72
2023/02/16 12:59:40;;;;;;;29.30;21.13;;;12.30;99.90;;;;;;5032083;28;20492;-72
2023/02/16 13:02:16;;;;;;;29.53;20.63;;;12.40;99.90;;;;;;5030618;28;20470;-72
2023/02/16 13:04:54;;;;;;;28.43;19.20;;;12.20;99.90;;;;;;5029684;28;20445;-72
2023/02/16 13:07:30;;;;;;;35.07;20.50;;;12.20;99.90;;;;;;5029102;28;20468;-71
2023/02/16 13:10:20;;;;;;;29.90;22.23;;;12.30;99.90;;;;;;5030498;28;20430;-71
2023/02/16 13:12:49;;;;;;;31.57;20.60;;;12.30;99.90;;;;;;5023667;28;20430;-72
2023/02/16 13:15:17;;;;;;;29.47;20.50;;;12.30;99.90;;;;;;5027038;28;20504;-72
2023/02/16 13:17:51;;;;;;;35.17;21.93;;;12.30;99.90;;;;;;5026514;28;20763;-72
2023/02/16 13:20:20;;;;;;;28.93;20.80;;;12.30;99.90;;;;;;5030525;28;20445;-71
2023/02/16 13:23:23;;;;;;;29.27;19.13;;;12.20;99.90;;;;;;5029747;28;20457;-72
2023/02/16 13:26:09;;;;;;;27.90;20.30;;;12.20;99.90;;;;;;5030642;28;20430;-72
2023/02/16 13:28:57;;;;;;;28.57;20.30;;;12.30;99.90;;;;;;5031146;28;20457;-71
2023/02/16 13:31:28;;;;;;;28.77;18.97;;;12.30;99.90;;;;;;5036787;28;20526;-71
2023/02/16 13:34:25;;;;;;;34.33;22.57;;;12.40;99.90;;;;;;5048483;28;20437;-72
2023/02/16 13:37:02;;;;;;;28.83;21.23;;;12.50;99.90;;;;;;5047028;28;20426;-72
2023/02/16 13:39:50;;;;;;;30.73;21.47;;;12.50;99.90;;;;;;5046246;28;20432;-72
2023/02/16 13:42:32;;;;;;;34.03;22.27;;;12.60;99.90;;;;;;5048676;28;20470;-72
2023/02/16 13:45:00;;;;;;;26.00;19.17;;;12.50;99.90;;;;;;5044187;28;20462;-73
2023/02/16 13:47:30;;;;;;;34.47;23.57;;;12.60;99.90;;;;;;5049626;28;20432;-74
2023/02/16 13:50:01;;;;;;;29.93;22.97;;;12.50;99.90;;;;;;5049196;28;20430;-74
2023/02/16 13:52:33;;;;;;;31.70;22.43;;;12.40;99.90;;;;;;5046993;28;20789;-76
2023/02/16 13:55:05;;;;;;;32.20;23.77;;;12.40;99.90;;;;;;5042332;28;20434;-77
2023/02/16 13:57:56;;;;;;;29.97;20.93;;;12.40;99.90;;;;;;5050204;28;20437;-75
2023/02/16 14:00:27;;;;;;;30.20;21.47;;;12.30;99.90;;;;;;5009830;28;20807;-77
2023/02/16 14:02:55;;;;;;;29.80;21.40;;;12.30;99.90;;;;;;5046545;28;20868;-74
2023/02/16 14:05:33;;;;;;;33.80;22.27;;;12.30;99.90;;;;;;5043447;28;20792;-74
2023/02/16 14:08:11;;;;;;;32.60;22.77;;;12.30;99.90;;;;;;5040385;28;20426;-80
2023/02/16 14:10:56;;;;;;;31.40;22.40;;;12.30;99.90;;;;;;5031587;28;20803;-77
2023/02/16 14:13:30;;;;;;;29.73;22.97;;;12.30;99.90;;;;;;5046482;28;20422;-78
2023/02/16 14:16:00;;;;;;;29.90;21.17;;;12.30;99.90;;;;;;5047134;28;20430;-78
2023/02/16 14:18:35;;;;;;;31.60;22.40;;;12.40;99.90;;;;;;5050661;28;20445;-77
2023/02/16 14:21:14;;;;;;;29.83;23.13;;;12.30;99.90;;;;;;5047184;28;20959;-81
2023/02/16 14:23:40;;;;;;;34.53;22.40;;;12.20;99.90;;;;;;5047463;28;20469;-81
2023/02/16 14:26:07;;;;;;;35.03;23.87;;;12.10;99.90;;;;;;5047925;28;20821;-76
2023/02/16 14:28:34;;;;;;;32.87;22.60;;;12.10;99.90;;;;;;5048215;28;20533;-82
2023/02/16 14:31:10;;;;;;;29.40;22.50;;;12.10;99.90;;;;;;5046660;28;20469;-84
2023/02/16 14:33:39;;;;;;;32.57;20.40;;;12.20;99.90;;;;;;5046586;28;20495;-80
2023/02/16 14:36:13;;;;;;;31.40;22.60;;;12.30;99.90;;;;;;5049337;28;20438;-79
2023/02/16 14:38:46;;;;;;;30.47;22.30;;;12.30;99.90;;;;;;5047664;28;20782;-82
2023/02/16 14:41:26;;;;;;;32.40;23.10;;;12.30;99.90;;;;;;5049591;28;20483;-79
2023/02/16 14:44:09;;;;;;;33.67;22.63;;;12.20;99.90;;;;;;5046768;28;20481;-80
2023/02/16 14:47:03;;;;;;;29.37;21.20;;;12.20;99.90;;;;;;5048737;28;20492;-80
2023/02/16 14:49:43;;;;;;;38.10;24.17;;;12.20;99.90;;;;;;5049032;28;20445;-79
2023/02/16 14:52:57;;;;;;;35.67;22.50;;;12.30;99.90;;;;;;5047346;28;20428;-79
2023/02/16 14:55:52;;;;;;;35.03;23.30;;;12.20;99.90;;;;;;4968811;28;20433;-78
2023/02/16 14:58:27;;;;;;;33.77;22.40;;;12.20;99.90;;;;;;4969873;28;20433;-77
2023/02/16 15:01:03;;;;;;;29.47;19.97;;;12.20;99.90;;;;;;5035270;28;20429;-81
2023/02/16 15:03:43;;;;;;;37.00;22.77;;;12.20;99.90;;;;;;5045404;28;20846;-81
2023/02/16 15:06:40;;;;;;;34.30;23.20;;;12.30;99.90;;;;;;5048204;28;20559;-80
2023/02/16 15:09:16;;;;;;;34.27;23.23;;;12.30;99.90;;;;;;5046133;28;20430;-82
2023/02/16 15:14:45;;;;;;;32.10;22.37;;;12.20;99.90;;;;;;5049916;28;20475;-77
2023/02/16 15:17:33;;;;;;;29.00;21.87;;;12.10;99.90;;;;;;5054318;28;20540;-89
2023/02/16 15:20:23;;;;;;;36.80;22.63;;;12.10;99.90;;;;;;5054124;28;20849;-88
2023/02/16 15:22:55;;;;;;;35.03;22.70;;;12.20;99.90;;;;;;5043198;28;20465;-78
2023/02/16 15:25:31;;;;;;;30.27;21.03;;;12.20;99.90;;;;;;5051325;28;20476;-80
2023/02/16 15:28:03;;;;;;;63.13;23.37;;;12.20;99.90;;;;;;5046286;28;20437;-78
2023/02/16 15:30:50;;;;;;;39.00;21.17;;;12.20;99.90;;;;;;5031714;28;20571;-76
2023/02/16 15:33:25;;;;;;;43.77;22.40;;;12.20;99.90;;;;;;5047347;28;20445;-74
2023/02/16 15:35:55;;;;;;;42.83;23.80;;;12.20;99.90;;;;;;5049890;28;20967;-72
2023/02/16 15:38:35;;;;;;;42.03;22.60;;;12.20;99.90;;;;;;5053622;28;20437;-76
2023/02/16 15:41:07;;;;;;;30.47;22.10;;;12.30;99.90;;;;;;5051957;28;20469;-78